sensor_id;sensor_type;location;lat;lon;timestamp;P1;durP1;ratioP1;P2;durP2;ratioP2
11835;SDS011;5977;51.972;7.640;2024-03-23T00:52:20;149.67;;;47.40;;
11835;SDS011;5977;51.972;7.640;2024-03-23T00:54:47;149.80;;;47.43;;
11835;SDS011;5977;51.972;7.640;2024-03-23T00:57:13;149.53;;;47.33;;
11835;SDS011;5977;51.972;7.640;2024-03-23T00:59:40;150.73;;;47.80;;
11835;SDS011;5977;51.972;7.640;2024-03-23T01:02:06;150.43;;;47.63;;
11835;SDS011;5977;51.972;7.640;2024-03-23T01:04:33;150.53;;;47.67;;
11835;SDS011;5977;51.972;7.640;2024-03-23T01:06:59;150.27;;;47.60;;
11835;SDS011;5977;51.972;7.640;2024-03-23T01:09:27;149.53;;;47.40;;
11835;SDS011;5977;51.972;7.640;2024-03-23T01:11:53;150.23;;;47.70;;
11835;SDS011;5977;51.972;7.640;2024-03-23T01:14:20;149.90;;;47.40;;
11835;SDS011;5977;51.972;7.640;2024-03-23T01:16:46;150.17;;;47.60;;
11835;SDS011;5977;51.972;7.640;2024-03-23T01:19:13;149.80;;;47.50;;
11835;SDS011;5977;51.972;7.640;2024-03-23T01:21:39;149.13;;;47.13;;
11835;SDS011;5977;51.972;7.640;2024-03-23T01:24:06;149.67;;;47.50;;
11835;SDS011;5977;51.972;7.640;2024-03-23T01:26:33;149.23;;;47.37;;
11835;SDS011;5977;51.972;7.640;2024-03-23T01:29:00;149.37;;;47.33;;
11835;SDS011;5977;51.972;7.640;2024-03-23T01:31:26;149.87;;;47.50;;
11835;SDS011;5977;51.972;7.640;2024-03-23T01:33:53;149.43;;;47.37;;
11835;SDS011;5977;51.972;7.640;2024-03-23T01:36:19;149.27;;;47.23;;
11835;SDS011;5977;51.972;7.640;2024-03-23T01:38:46;149.00;;;47.30;;
11835;SDS011;5977;51.972;7.640;2024-03-23T01:41:12;149.13;;;47.40;;
11835;SDS011;5977;51.972;7.640;2024-03-23T01:43:40;149.93;;;47.60;;
11835;SDS011;5977;51.972;7.640;2024-03-23T01:46:06;149.83;;;47.57;;
11835;SDS011;5977;51.972;7.640;2024-03-23T01:48:33;148.93;;;47.33;;
11835;SDS011;5977;51.972;7.640;2024-03-23T01:50:59;149.53;;;47.43;;
11835;SDS011;5977;51.972;7.640;2024-03-23T01:53:27;148.87;;;47.17;;
11835;SDS011;5977;51.972;7.640;2024-03-23T01:55:53;149.37;;;47.40;;
11835;SDS011;5977;51.972;7.640;2024-03-23T01:58:22;149.67;;;47.50;;
11835;SDS011;5977;51.972;7.640;2024-03-23T02:00:49;148.87;;;47.23;;
11835;SDS011;5977;51.972;7.640;2024-03-23T02:03:23;149.83;;;47.63;;
11835;SDS011;5977;51.972;7.640;2024-03-23T02:05:49;148.43;;;47.10;;
11835;SDS011;5977;51.972;7.640;2024-03-23T02:08:17;148.70;;;47.27;;
11835;SDS011;5977;51.972;7.640;2024-03-23T02:10:43;148.53;;;47.20;;
11835;SDS011;5977;51.972;7.640;2024-03-23T02:13:10;149.50;;;47.50;;
11835;SDS011;5977;51.972;7.640;2024-03-23T02:15:37;149.47;;;47.40;;
11835;SDS011;5977;51.972;7.640;2024-03-23T02:18:06;149.63;;;47.40;;
11835;SDS011;5977;51.972;7.640;2024-03-23T02:20:32;148.70;;;47.20;;
11835;SDS011;5977;51.972;7.640;2024-03-23T02:23:01;149.57;;;47.47;;
11835;SDS011;5977;51.972;7.640;2024-03-23T02:25:27;148.93;;;47.17;;
11835;SDS011;5977;51.972;7.640;2024-03-23T02:27:54;148.80;;;47.20;;
11835;SDS011;5977;51.972;7.640;2024-03-23T02:30:21;149.80;;;47.57;;
11835;SDS011;5977;51.972;7.640;2024-03-23T02:32:48;148.77;;;47.23;;
11835;SDS011;5977;51.972;7.640;2024-03-23T02:35:14;148.93;;;47.37;;
11835;SDS011;5977;51.972;7.640;2024-03-23T02:37:41;148.57;;;47.20;;
11835;SDS011;5977;51.972;7.640;2024-03-23T02:40:09;148.57;;;47.20;;
11835;SDS011;5977;51.972;7.640;2024-03-23T02:42:36;148.57;;;47.30;;
11835;SDS011;5977;51.972;7.640;2024-03-23T02:45:02;148.33;;;47.10;;
11835;SDS011;5977;51.972;7.640;2024-03-23T02:47:30;148.90;;;47.30;;
11835;SDS011;5977;51.972;7.640;2024-03-23T02:49:56;148.47;;;47.20;;
11835;SDS011;5977;51.972;7.640;2024-03-23T02:52:23;148.53;;;47.30;;
11835;SDS011;5977;51.972;7.640;2024-03-23T02:54:49;148.20;;;47.10;;
11835;SDS011;5977;51.972;7.640;2024-03-23T02:57:17;148.10;;;47.10;;
11835;SDS011;5977;51.972;7.640;2024-03-23T02:59:43;148.63;;;47.20;;
11835;SDS011;5977;51.972;7.640;2024-03-23T03:02:11;147.93;;;47.03;;
11835;SDS011;5977;51.972;7.640;2024-03-23T03:04:38;148.40;;;47.20;;
11835;SDS011;5977;51.972;7.640;2024-03-23T03:07:05;148.83;;;47.33;;
11835;SDS011;5977;51.972;7.640;2024-03-23T03:09:31;148.43;;;47.20;;
11835;SDS011;5977;51.972;7.640;2024-03-23T03:12:00;148.83;;;47.27;;
11835;SDS011;5977;51.972;7.640;2024-03-23T03:14:28;148.50;;;47.30;;
11835;SDS011;5977;51.972;7.640;2024-03-23T03:16:55;148.47;;;47.10;;
11835;SDS011;5977;51.972;7.640;2024-03-23T03:19:21;147.63;;;46.90;;
11835;SDS011;5977;51.972;7.640;2024-03-23T03:21:48;147.90;;;47.10;;
11835;SDS011;5977;51.972;7.640;2024-03-23T03:24:14;147.93;;;47.17;;
11835;SDS011;5977;51.972;7.640;2024-03-23T03:26:42;148.27;;;47.10;;
11835;SDS011;5977;51.972;7.640;2024-03-23T03:29:08;147.20;;;46.87;;
11835;SDS011;5977;51.972;7.640;2024-03-23T03:31:37;148.33;;;47.23;;
11835;SDS011;5977;51.972;7.640;2024-03-23T03:34:03;147.77;;;47.00;;
11835;SDS011;5977;51.972;7.640;2024-03-23T03:36:30;148.50;;;47.23;;
11835;SDS011;5977;51.972;7.640;2024-03-23T03:38:55;147.90;;;47.10;;
11835;SDS011;5977;51.972;7.640;2024-03-23T03:41:22;147.63;;;47.03;;
11835;SDS011;5977;51.972;7.640;2024-03-23T03:43:48;148.40;;;47.20;;
11835;SDS011;5977;51.972;7.640;2024-03-23T03:46:15;147.30;;;46.90;;
11835;SDS011;5977;51.972;7.640;2024-03-23T03:48:43;147.87;;;47.07;;
11835;SDS011;5977;51.972;7.640;2024-03-23T03:51:10;148.13;;;47.10;;
11835;SDS011;5977;51.972;7.640;2024-03-23T03:53:36;147.77;;;47.13;;
11835;SDS011;5977;51.972;7.640;2024-03-23T03:56:03;148.07;;;47.20;;
11835;SDS011;5977;51.972;7.640;2024-03-23T03:58:29;147.97;;;47.20;;
11835;SDS011;5977;51.972;7.640;2024-03-23T04:00:56;148.07;;;47.27;;
11835;SDS011;5977;51.972;7.640;2024-03-23T04:03:22;147.37;;;46.90;;
11835;SDS011;5977;51.972;7.640;2024-03-23T04:05:51;147.77;;;47.07;;
11835;SDS011;5977;51.972;7.640;2024-03-23T04:08:17;147.63;;;47.03;;
11835;SDS011;5977;51.972;7.640;2024-03-23T04:10:45;147.13;;;46.90;;
11835;SDS011;5977;51.972;7.640;2024-03-23T04:13:11;148.37;;;47.27;;
11835;SDS011;5977;51.972;7.640;2024-03-23T04:15:38;148.37;;;47.37;;
11835;SDS011;5977;51.972;7.640;2024-03-23T04:18:04;147.80;;;47.07;;
11835;SDS011;5977;51.972;7.640;2024-03-23T04:20:31;147.97;;;47.17;;
11835;SDS011;5977;51.972;7.640;2024-03-23T04:22:58;148.13;;;47.17;;
11835;SDS011;5977;51.972;7.640;2024-03-23T04:25:26;147.73;;;47.07;;
11835;SDS011;5977;51.972;7.640;2024-03-23T04:27:52;148.03;;;47.20;;
11835;SDS011;5977;51.972;7.640;2024-03-23T04:30:19;147.90;;;47.20;;
11835;SDS011;5977;51.972;7.640;2024-03-23T04:32:46;147.33;;;47.00;;
11835;SDS011;5977;51.972;7.640;2024-03-23T04:35:13;147.20;;;46.97;;
11835;SDS011;5977;51.972;7.640;2024-03-23T04:37:39;147.70;;;47.13;;
11835;SDS011;5977;51.972;7.640;2024-03-23T04:40:08;147.80;;;47.10;;
11835;SDS011;5977;51.972;7.640;2024-03-23T04:42:36;147.60;;;47.03;;
11835;SDS011;5977;51.972;7.640;2024-03-23T04:45:04;147.60;;;47.00;;
11835;SDS011;5977;51.972;7.640;2024-03-23T04:47:31;147.70;;;47.17;;
11835;SDS011;5977;51.972;7.640;2024-03-23T04:49:58;147.50;;;47.00;;
11835;SDS011;5977;51.972;7.640;2024-03-23T04:52:26;147.07;;;46.90;;
11835;SDS011;5977;51.972;7.640;2024-03-23T04:54:53;147.67;;;47.13;;
11835;SDS011;5977;51.972;7.640;2024-03-23T04:57:22;147.83;;;47.03;;
11835;SDS011;5977;51.972;7.640;2024-03-23T04:59:49;148.33;;;47.37;;
11835;SDS011;5977;51.972;7.640;2024-03-23T05:02:15;147.23;;;46.90;;
11835;SDS011;5977;51.972;7.640;2024-03-23T05:04:42;147.13;;;46.83;;
11835;SDS011;5977;51.972;7.640;2024-03-23T05:07:08;147.77;;;47.13;;
11835;SDS011;5977;51.972;7.640;2024-03-23T05:09:35;147.17;;;46.90;;
11835;SDS011;5977;51.972;7.640;2024-03-23T05:12:01;147.90;;;47.20;;
11835;SDS011;5977;51.972;7.640;2024-03-23T05:14:30;147.10;;;47.00;;
11835;SDS011;5977;51.972;7.640;2024-03-23T05:16:56;146.87;;;46.77;;
11835;SDS011;5977;51.972;7.640;2024-03-23T05:19:23;148.13;;;47.20;;
11835;SDS011;5977;51.972;7.640;2024-03-23T05:21:49;148.00;;;47.10;;
11835;SDS011;5977;51.972;7.640;2024-03-23T05:24:16;148.13;;;47.10;;
11835;SDS011;5977;51.972;7.640;2024-03-23T05:26:42;147.70;;;47.00;;
11835;SDS011;5977;51.972;7.640;2024-03-23T05:29:09;147.03;;;46.80;;
11835;SDS011;5977;51.972;7.640;2024-03-23T05:31:40;147.33;;;46.90;;
11835;SDS011;5977;51.972;7.640;2024-03-23T05:34:08;148.07;;;47.20;;
11835;SDS011;5977;51.972;7.640;2024-03-23T05:36:34;148.17;;;47.23;;
11835;SDS011;5977;51.972;7.640;2024-03-23T05:39:02;148.13;;;47.20;;
11835;SDS011;5977;51.972;7.640;2024-03-23T05:41:28;147.67;;;47.03;;
11835;SDS011;5977;51.972;7.640;2024-03-23T05:43:55;148.30;;;47.10;;
11835;SDS011;5977;51.972;7.640;2024-03-23T05:46:21;148.70;;;47.37;;
11835;SDS011;5977;51.972;7.640;2024-03-23T05:48:49;148.17;;;47.20;;
11835;SDS011;5977;51.972;7.640;2024-03-23T05:51:25;147.90;;;47.10;;
11835;SDS011;5977;51.972;7.640;2024-03-23T05:53:52;147.83;;;47.20;;
11835;SDS011;5977;51.972;7.640;2024-03-23T05:56:19;147.73;;;47.10;;
11835;SDS011;5977;51.972;7.640;2024-03-23T05:58:46;148.03;;;47.20;;
11835;SDS011;5977;51.972;7.640;2024-03-23T06:01:13;147.17;;;46.97;;
11835;SDS011;5977;51.972;7.640;2024-03-23T06:03:40;147.37;;;47.03;;
11835;SDS011;5977;51.972;7.640;2024-03-23T06:06:08;147.13;;;46.97;;
11835;SDS011;5977;51.972;7.640;2024-03-23T06:08:37;147.30;;;47.07;;
11835;SDS011;5977;51.972;7.640;2024-03-23T06:11:03;147.37;;;46.97;;
11835;SDS011;5977;51.972;7.640;2024-03-23T06:13:31;147.37;;;47.00;;
11835;SDS011;5977;51.972;7.640;2024-03-23T06:15:57;147.43;;;47.10;;
11835;SDS011;5977;51.972;7.640;2024-03-23T06:18:25;147.10;;;47.03;;
11835;SDS011;5977;51.972;7.640;2024-03-23T06:20:51;147.73;;;47.20;;
11835;SDS011;5977;51.972;7.640;2024-03-23T06:23:19;148.00;;;47.33;;
11835;SDS011;5977;51.972;7.640;2024-03-23T06:25:45;147.33;;;47.00;;
11835;SDS011;5977;51.972;7.640;2024-03-23T06:28:12;147.50;;;47.13;;
11835;SDS011;5977;51.972;7.640;2024-03-23T06:30:39;146.97;;;46.90;;
11835;SDS011;5977;51.972;7.640;2024-03-23T06:33:06;147.67;;;47.20;;
11835;SDS011;5977;51.972;7.640;2024-03-23T06:35:32;147.90;;;47.30;;
11835;SDS011;5977;51.972;7.640;2024-03-23T06:37:59;147.70;;;47.13;;
11835;SDS011;5977;51.972;7.640;2024-03-23T06:40:26;147.93;;;47.13;;
11835;SDS011;5977;51.972;7.640;2024-03-23T06:42:53;148.37;;;47.30;;
11835;SDS011;5977;51.972;7.640;2024-03-23T06:45:19;148.37;;;47.27;;
11835;SDS011;5977;51.972;7.640;2024-03-23T06:47:48;148.20;;;47.20;;
11835;SDS011;5977;51.972;7.640;2024-03-23T06:50:16;148.83;;;47.47;;
11835;SDS011;5977;51.972;7.640;2024-03-23T06:52:43;148.80;;;47.50;;
11835;SDS011;5977;51.972;7.640;2024-03-23T06:55:09;148.33;;;47.43;;
11835;SDS011;5977;51.972;7.640;2024-03-23T06:57:37;148.87;;;47.57;;
11835;SDS011;5977;51.972;7.640;2024-03-23T07:00:03;148.70;;;47.50;;
11835;SDS011;5977;51.972;7.640;2024-03-23T07:02:35;149.60;;;47.70;;
11835;SDS011;5977;51.972;7.640;2024-03-23T07:05:01;151.00;;;48.07;;
11835;SDS011;5977;51.972;7.640;2024-03-23T07:07:28;151.07;;;48.30;;
11835;SDS011;5977;51.972;7.640;2024-03-23T07:09:55;151.47;;;48.20;;
11835;SDS011;5977;51.972;7.640;2024-03-23T07:12:22;152.83;;;48.60;;
11835;SDS011;5977;51.972;7.640;2024-03-23T07:14:49;152.00;;;48.30;;
11835;SDS011;5977;51.972;7.640;2024-03-23T07:17:16;153.43;;;48.70;;
11835;SDS011;5977;51.972;7.640;2024-03-23T07:19:43;153.90;;;48.83;;
11835;SDS011;5977;51.972;7.640;2024-03-23T07:22:10;155.33;;;49.27;;
11835;SDS011;5977;51.972;7.640;2024-03-23T07:24:36;155.77;;;49.40;;
11835;SDS011;5977;51.972;7.640;2024-03-23T07:27:04;156.33;;;49.83;;
11835;SDS011;5977;51.972;7.640;2024-03-23T07:29:31;156.90;;;49.80;;
11835;SDS011;5977;51.972;7.640;2024-03-23T07:31:59;157.57;;;50.07;;
11835;SDS011;5977;51.972;7.640;2024-03-23T07:34:25;158.17;;;50.33;;
11835;SDS011;5977;51.972;7.640;2024-03-23T07:36:52;158.70;;;50.57;;
11835;SDS011;5977;51.972;7.640;2024-03-23T07:39:18;158.97;;;50.53;;
11835;SDS011;5977;51.972;7.640;2024-03-23T07:41:45;158.87;;;50.50;;
11835;SDS011;5977;51.972;7.640;2024-03-23T07:44:11;159.73;;;50.87;;
11835;SDS011;5977;51.972;7.640;2024-03-23T07:46:38;160.73;;;51.03;;
11835;SDS011;5977;51.972;7.640;2024-03-23T07:49:06;159.77;;;50.83;;
11835;SDS011;5977;51.972;7.640;2024-03-23T07:51:33;161.00;;;51.40;;
11835;SDS011;5977;51.972;7.640;2024-03-23T07:54:00;161.17;;;51.43;;
11835;SDS011;5977;51.972;7.640;2024-03-23T07:56:27;161.97;;;51.80;;
11835;SDS011;5977;51.972;7.640;2024-03-23T07:58:53;161.77;;;51.77;;
11835;SDS011;5977;51.972;7.640;2024-03-23T08:01:20;162.53;;;52.07;;
11835;SDS011;5977;51.972;7.640;2024-03-23T08:03:46;162.93;;;52.27;;
11835;SDS011;5977;51.972;7.640;2024-03-23T08:06:15;163.80;;;52.57;;
11835;SDS011;5977;51.972;7.640;2024-03-23T08:08:43;164.57;;;52.70;;
11835;SDS011;5977;51.972;7.640;2024-03-23T08:11:13;165.67;;;52.83;;
11835;SDS011;5977;51.972;7.640;2024-03-23T08:13:40;164.70;;;52.47;;
11835;SDS011;5977;51.972;7.640;2024-03-23T08:16:08;164.17;;;52.20;;
11835;SDS011;5977;51.972;7.640;2024-03-23T08:18:34;163.33;;;51.87;;
11835;SDS011;5977;51.972;7.640;2024-03-23T08:21:01;163.37;;;51.90;;
11835;SDS011;5977;51.972;7.640;2024-03-23T08:23:31;163.03;;;51.70;;
11835;SDS011;5977;51.972;7.640;2024-03-23T08:26:01;162.70;;;51.67;;
11835;SDS011;5977;51.972;7.640;2024-03-23T08:28:28;162.70;;;51.77;;
11835;SDS011;5977;51.972;7.640;2024-03-23T08:30:56;163.13;;;51.80;;
11835;SDS011;5977;51.972;7.640;2024-03-23T08:33:22;163.47;;;51.80;;
11835;SDS011;5977;51.972;7.640;2024-03-23T08:35:53;163.73;;;52.07;;
11835;SDS011;5977;51.972;7.640;2024-03-23T08:38:20;163.00;;;51.90;;
11835;SDS011;5977;51.972;7.640;2024-03-23T08:40:53;163.63;;;52.23;;
11835;SDS011;5977;51.972;7.640;2024-03-23T08:43:22;163.97;;;52.10;;
11835;SDS011;5977;51.972;7.640;2024-03-23T08:45:49;163.93;;;52.17;;
11835;SDS011;5977;51.972;7.640;2024-03-23T08:48:15;164.37;;;52.27;;
11835;SDS011;5977;51.972;7.640;2024-03-23T08:50:43;164.37;;;52.23;;
11835;SDS011;5977;51.972;7.640;2024-03-23T08:53:09;164.00;;;52.13;;
11835;SDS011;5977;51.972;7.640;2024-03-23T08:55:36;164.00;;;52.03;;
11835;SDS011;5977;51.972;7.640;2024-03-23T08:58:03;164.13;;;52.10;;
11835;SDS011;5977;51.972;7.640;2024-03-23T09:00:33;163.97;;;52.03;;
11835;SDS011;5977;51.972;7.640;2024-03-23T09:02:59;163.73;;;52.10;;
11835;SDS011;5977;51.972;7.640;2024-03-23T09:05:27;163.60;;;51.97;;
11835;SDS011;5977;51.972;7.640;2024-03-23T09:07:56;163.60;;;51.90;;
11835;SDS011;5977;51.972;7.640;2024-03-23T09:10:23;163.57;;;51.97;;
11835;SDS011;5977;51.972;7.640;2024-03-23T09:12:49;164.17;;;52.13;;
11835;SDS011;5977;51.972;7.640;2024-03-23T09:15:18;163.57;;;51.90;;
11835;SDS011;5977;51.972;7.640;2024-03-23T09:17:44;164.60;;;52.30;;
11835;SDS011;5977;51.972;7.640;2024-03-23T09:20:11;163.67;;;51.80;;
11835;SDS011;5977;51.972;7.640;2024-03-23T09:22:37;163.70;;;51.87;;
11835;SDS011;5977;51.972;7.640;2024-03-23T09:25:05;163.30;;;51.57;;
11835;SDS011;5977;51.972;7.640;2024-03-23T09:27:32;164.00;;;52.10;;
11835;SDS011;5977;51.972;7.640;2024-03-23T09:29:58;163.60;;;51.90;;
11835;SDS011;5977;51.972;7.640;2024-03-23T09:32:26;163.97;;;52.07;;
11835;SDS011;5977;51.972;7.640;2024-03-23T09:34:53;164.97;;;52.40;;
11835;SDS011;5977;51.972;7.640;2024-03-23T09:37:20;164.07;;;52.07;;
11835;SDS011;5977;51.972;7.640;2024-03-23T09:39:46;162.70;;;51.57;;
11835;SDS011;5977;51.972;7.640;2024-03-23T09:42:13;161.50;;;51.27;;
11835;SDS011;5977;51.972;7.640;2024-03-23T09:44:40;160.97;;;50.97;;
11835;SDS011;5977;51.972;7.640;2024-03-23T09:47:07;160.97;;;51.07;;
11835;SDS011;5977;51.972;7.640;2024-03-23T09:49:35;161.00;;;50.97;;
11835;SDS011;5977;51.972;7.640;2024-03-23T09:52:02;160.77;;;50.87;;
11835;SDS011;5977;51.972;7.640;2024-03-23T09:54:28;159.50;;;50.40;;
11835;SDS011;5977;51.972;7.640;2024-03-23T09:56:55;159.90;;;50.97;;
11835;SDS011;5977;51.972;7.640;2024-03-23T09:59:21;160.50;;;51.07;;
11835;SDS011;5977;51.972;7.640;2024-03-23T10:01:48;161.53;;;51.20;;
11835;SDS011;5977;51.972;7.640;2024-03-23T10:07:10;161.83;;;51.43;;
11835;SDS011;5977;51.972;7.640;2024-03-23T10:09:37;162.80;;;51.77;;
11835;SDS011;5977;51.972;7.640;2024-03-23T10:12:08;162.80;;;51.57;;
11835;SDS011;5977;51.972;7.640;2024-03-23T10:14:35;162.13;;;51.30;;
11835;SDS011;5977;51.972;7.640;2024-03-23T10:17:13;161.47;;;51.17;;
11835;SDS011;5977;51.972;7.640;2024-03-23T10:19:41;161.80;;;51.10;;
11835;SDS011;5977;51.972;7.640;2024-03-23T10:22:09;161.03;;;51.20;;
11835;SDS011;5977;51.972;7.640;2024-03-23T10:24:35;160.17;;;50.63;;
11835;SDS011;5977;51.972;7.640;2024-03-23T10:27:02;160.67;;;50.80;;
11835;SDS011;5977;51.972;7.640;2024-03-23T10:29:29;160.43;;;50.90;;
11835;SDS011;5977;51.972;7.640;2024-03-23T10:32:07;160.27;;;50.67;;
11835;SDS011;5977;51.972;7.640;2024-03-23T10:34:34;160.17;;;50.60;;
11835;SDS011;5977;51.972;7.640;2024-03-23T10:37:03;160.33;;;50.70;;
11835;SDS011;5977;51.972;7.640;2024-03-23T10:39:33;160.40;;;50.80;;
11835;SDS011;5977;51.972;7.640;2024-03-23T10:42:05;160.47;;;50.63;;
11835;SDS011;5977;51.972;7.640;2024-03-23T10:44:32;160.60;;;50.80;;
11835;SDS011;5977;51.972;7.640;2024-03-23T10:47:00;160.00;;;50.67;;
11835;SDS011;5977;51.972;7.640;2024-03-23T10:49:28;160.70;;;50.67;;
11835;SDS011;5977;51.972;7.640;2024-03-23T10:51:59;160.30;;;50.67;;
11835;SDS011;5977;51.972;7.640;2024-03-23T10:54:27;159.80;;;50.43;;
11835;SDS011;5977;51.972;7.640;2024-03-23T10:56:57;160.47;;;50.70;;
11835;SDS011;5977;51.972;7.640;2024-03-23T10:59:27;159.50;;;50.30;;
11835;SDS011;5977;51.972;7.640;2024-03-23T11:01:55;159.03;;;50.23;;
11835;SDS011;5977;51.972;7.640;2024-03-23T11:04:35;158.77;;;50.00;;
11835;SDS011;5977;51.972;7.640;2024-03-23T11:07:05;159.20;;;50.20;;
11835;SDS011;5977;51.972;7.640;2024-03-23T11:09:55;158.70;;;49.93;;
11835;SDS011;5977;51.972;7.640;2024-03-23T11:12:26;159.80;;;50.47;;
11835;SDS011;5977;51.972;7.640;2024-03-23T11:14:53;159.77;;;50.57;;
11835;SDS011;5977;51.972;7.640;2024-03-23T11:17:22;160.80;;;50.90;;
11835;SDS011;5977;51.972;7.640;2024-03-23T11:19:55;161.10;;;51.03;;
11835;SDS011;5977;51.972;7.640;2024-03-23T11:22:40;161.43;;;51.13;;
11835;SDS011;5977;51.972;7.640;2024-03-23T11:25:12;161.60;;;51.43;;
11835;SDS011;5977;51.972;7.640;2024-03-23T11:27:43;161.70;;;51.30;;
11835;SDS011;5977;51.972;7.640;2024-03-23T11:30:14;161.07;;;51.07;;
11835;SDS011;5977;51.972;7.640;2024-03-23T11:32:43;160.43;;;50.70;;
11835;SDS011;5977;51.972;7.640;2024-03-23T11:35:10;160.73;;;50.97;;
11835;SDS011;5977;51.972;7.640;2024-03-23T11:37:37;161.17;;;51.00;;
11835;SDS011;5977;51.972;7.640;2024-03-23T11:40:20;160.33;;;50.63;;
11835;SDS011;5977;51.972;7.640;2024-03-23T11:42:54;160.53;;;50.77;;
11835;SDS011;5977;51.972;7.640;2024-03-23T11:45:21;159.80;;;50.50;;
11835;SDS011;5977;51.972;7.640;2024-03-23T11:47:48;159.73;;;50.60;;
11835;SDS011;5977;51.972;7.640;2024-03-23T11:50:26;160.57;;;50.90;;
11835;SDS011;5977;51.972;7.640;2024-03-23T11:52:53;160.10;;;50.60;;
11835;SDS011;5977;51.972;7.640;2024-03-23T11:55:41;160.10;;;50.73;;
11835;SDS011;5977;51.972;7.640;2024-03-23T11:58:08;159.30;;;50.47;;
11835;SDS011;5977;51.972;7.640;2024-03-23T12:00:35;161.10;;;51.00;;
11835;SDS011;5977;51.972;7.640;2024-03-23T12:03:02;160.07;;;50.67;;
11835;SDS011;5977;51.972;7.640;2024-03-23T12:05:29;160.07;;;50.67;;
11835;SDS011;5977;51.972;7.640;2024-03-23T12:10:46;160.23;;;50.70;;
11835;SDS011;5977;51.972;7.640;2024-03-23T12:13:18;160.33;;;50.90;;
11835;SDS011;5977;51.972;7.640;2024-03-23T12:15:46;160.37;;;50.77;;
11835;SDS011;5977;51.972;7.640;2024-03-23T12:18:14;160.27;;;50.67;;
11835;SDS011;5977;51.972;7.640;2024-03-23T12:20:40;160.83;;;50.93;;
11835;SDS011;5977;51.972;7.640;2024-03-23T12:23:08;160.87;;;51.00;;
11835;SDS011;5977;51.972;7.640;2024-03-23T12:25:38;159.57;;;50.53;;
11835;SDS011;5977;51.972;7.640;2024-03-23T12:28:07;161.60;;;51.30;;
11835;SDS011;5977;51.972;7.640;2024-03-23T12:30:34;160.90;;;51.00;;
11835;SDS011;5977;51.972;7.640;2024-03-23T12:33:02;161.97;;;51.57;;
11835;SDS011;5977;51.972;7.640;2024-03-23T12:35:28;161.87;;;51.37;;
11835;SDS011;5977;51.972;7.640;2024-03-23T12:37:55;161.17;;;51.27;;
11835;SDS011;5977;51.972;7.640;2024-03-23T12:40:22;162.20;;;51.53;;
11835;SDS011;5977;51.972;7.640;2024-03-23T12:42:49;161.87;;;51.37;;
11835;SDS011;5977;51.972;7.640;2024-03-23T12:45:16;161.50;;;51.33;;
11835;SDS011;5977;51.972;7.640;2024-03-23T12:47:43;161.07;;;51.10;;
11835;SDS011;5977;51.972;7.640;2024-03-23T12:50:09;161.37;;;51.17;;
11835;SDS011;5977;51.972;7.640;2024-03-23T12:52:36;160.90;;;51.03;;
11835;SDS011;5977;51.972;7.640;2024-03-23T12:55:03;161.37;;;51.20;;
11835;SDS011;5977;51.972;7.640;2024-03-23T12:57:31;161.83;;;51.37;;
11835;SDS011;5977;51.972;7.640;2024-03-23T12:59:57;161.83;;;51.43;;
11835;SDS011;5977;51.972;7.640;2024-03-23T13:02:25;161.20;;;51.20;;
11835;SDS011;5977;51.972;7.640;2024-03-23T13:04:52;161.37;;;51.20;;
11835;SDS011;5977;51.972;7.640;2024-03-23T13:07:20;162.20;;;51.60;;
11835;SDS011;5977;51.972;7.640;2024-03-23T13:09:47;161.30;;;51.30;;
11835;SDS011;5977;51.972;7.640;2024-03-23T13:12:16;161.47;;;51.30;;
11835;SDS011;5977;51.972;7.640;2024-03-23T13:14:44;161.17;;;51.43;;
11835;SDS011;5977;51.972;7.640;2024-03-23T13:17:18;160.83;;;51.13;;
11835;SDS011;5977;51.972;7.640;2024-03-23T13:19:45;159.10;;;50.47;;
11835;SDS011;5977;51.972;7.640;2024-03-23T13:22:12;160.23;;;50.87;;
11835;SDS011;5977;51.972;7.640;2024-03-23T13:24:38;160.20;;;50.87;;
11835;SDS011;5977;51.972;7.640;2024-03-23T13:27:05;160.17;;;50.77;;
11835;SDS011;5977;51.972;7.640;2024-03-23T13:29:33;159.87;;;50.57;;
11835;SDS011;5977;51.972;7.640;2024-03-23T13:32:00;160.07;;;50.67;;
11835;SDS011;5977;51.972;7.640;2024-03-23T13:34:27;158.70;;;50.13;;
11835;SDS011;5977;51.972;7.640;2024-03-23T13:36:56;159.87;;;50.47;;
11835;SDS011;5977;51.972;7.640;2024-03-23T13:39:23;159.43;;;50.30;;
11835;SDS011;5977;51.972;7.640;2024-03-23T13:41:52;158.90;;;50.10;;
11835;SDS011;5977;51.972;7.640;2024-03-23T13:44:19;158.20;;;49.80;;
11835;SDS011;5977;51.972;7.640;2024-03-23T13:46:45;158.93;;;50.10;;
11835;SDS011;5977;51.972;7.640;2024-03-23T13:49:14;157.93;;;49.87;;
11835;SDS011;5977;51.972;7.640;2024-03-23T13:51:51;159.03;;;50.20;;
11835;SDS011;5977;51.972;7.640;2024-03-23T13:54:19;159.53;;;50.20;;
11835;SDS011;5977;51.972;7.640;2024-03-23T13:56:47;158.57;;;50.10;;
11835;SDS011;5977;51.972;7.640;2024-03-23T13:59:14;159.10;;;50.27;;
11835;SDS011;5977;51.972;7.640;2024-03-23T14:01:41;158.93;;;50.27;;
11835;SDS011;5977;51.972;7.640;2024-03-23T14:04:07;158.60;;;49.97;;
11835;SDS011;5977;51.972;7.640;2024-03-23T14:06:35;157.03;;;49.50;;
11835;SDS011;5977;51.972;7.640;2024-03-23T14:09:01;157.53;;;49.57;;
11835;SDS011;5977;51.972;7.640;2024-03-23T14:11:30;157.53;;;49.73;;
11835;SDS011;5977;51.972;7.640;2024-03-23T14:13:56;156.80;;;49.33;;
11835;SDS011;5977;51.972;7.640;2024-03-23T14:16:23;157.57;;;49.60;;
11835;SDS011;5977;51.972;7.640;2024-03-23T14:18:49;157.20;;;49.60;;
11835;SDS011;5977;51.972;7.640;2024-03-23T14:21:16;156.83;;;49.43;;
11835;SDS011;5977;51.972;7.640;2024-03-23T14:23:42;157.40;;;49.47;;
11835;SDS011;5977;51.972;7.640;2024-03-23T14:26:09;158.00;;;49.97;;
11835;SDS011;5977;51.972;7.640;2024-03-23T14:28:48;156.80;;;49.43;;
11835;SDS011;5977;51.972;7.640;2024-03-23T14:31:16;156.63;;;49.37;;
11835;SDS011;5977;51.972;7.640;2024-03-23T14:33:42;157.53;;;49.77;;
11835;SDS011;5977;51.972;7.640;2024-03-23T14:36:12;157.77;;;49.63;;
11835;SDS011;5977;51.972;7.640;2024-03-23T14:38:38;157.30;;;49.57;;
11835;SDS011;5977;51.972;7.640;2024-03-23T14:41:05;157.67;;;49.73;;
11835;SDS011;5977;51.972;7.640;2024-03-23T14:43:31;157.07;;;49.60;;
11835;SDS011;5977;51.972;7.640;2024-03-23T14:48:49;158.57;;;50.10;;
11835;SDS011;5977;51.972;7.640;2024-03-23T14:51:15;158.50;;;50.03;;
11835;SDS011;5977;51.972;7.640;2024-03-23T14:53:45;159.20;;;50.27;;
11835;SDS011;5977;51.972;7.640;2024-03-23T14:56:13;158.40;;;50.20;;
11835;SDS011;5977;51.972;7.640;2024-03-23T14:58:41;158.33;;;50.10;;
11835;SDS011;5977;51.972;7.640;2024-03-23T15:01:08;158.43;;;50.03;;
11835;SDS011;5977;51.972;7.640;2024-03-23T15:03:36;158.43;;;50.07;;
11835;SDS011;5977;51.972;7.640;2024-03-23T15:06:04;159.27;;;50.43;;
11835;SDS011;5977;51.972;7.640;2024-03-23T15:08:31;158.37;;;49.93;;
11835;SDS011;5977;51.972;7.640;2024-03-23T15:10:58;158.47;;;49.90;;
11835;SDS011;5977;51.972;7.640;2024-03-23T15:13:25;158.43;;;50.10;;
11835;SDS011;5977;51.972;7.640;2024-03-23T15:15:52;158.83;;;50.07;;
11835;SDS011;5977;51.972;7.640;2024-03-23T15:18:18;157.53;;;49.63;;
11835;SDS011;5977;51.972;7.640;2024-03-23T15:20:55;157.40;;;49.60;;
11835;SDS011;5977;51.972;7.640;2024-03-23T15:23:22;157.83;;;49.80;;